Portada
METAR-TAF:

METAR-TAF

Aeropuertos :

Aeropuerto de la Ciudad de Londres

Londres, Inglaterra

latitud: 51-30N, longitud: 000-03E, altitud: 5 m

Observación

El informe se hizo hace 18 minutos, a las 03:50 UTC
Viento 3 kt con dirección variable
Temperatura 15°C
Humedad 88%
Presión 1010 hPa
Visibilidad: 8000 m

METAR: EGLC 030350Z AUTO VRB03KT 8000 NCD 15/13 Q1010

Hora: 05:08 (04:08 UTC)

Pronóstico

El informe se hizo hace 25 minutos, a las 03:43 UTC
Pronóstico válido del 03 a las 03 UTC al 03 a las 12 UTC
Viento 3 kt con dirección variable
Visibilidad 10 km o más
sin nubes por debajo de 1500 m y sin presencia de cumulonimbus.
Temporalmente
del 03 a las 03 UTC al 03 a las 06 UTC
Visibilidad: 8000 m
Probabilidad 40% :
Temporalmente
del 03 a las 06 UTC al 03 a las 12 UTC
Visibilidad: 8000 m
Cielo nuboso a una altura de 3000 ft
lluvia ligera

TAF: EGLC 030343Z 0303/0312 VRB03KT CAVOK TEMPO 0303/0306 8000 PROB40 TEMPO 0306/0312 8000 -RA BKN030

Observaciones y pronósticos meteorológicos de más de 4000 aeropuertos (mensajes METAR y TAF).

Los puntos amarillos y rojos representan las estaciones disponibles.

Ponga el ratón en el punto deseado para ver el nombre de la estación.

Haga clic para ver las observaciones y los pronósticos meteorológicos.

Para cambiar el mapa : haga clic en los botones verdes con una cruz de color negro para hacer un zoom, en el botón verde con un guión para alejar o en las flechas verdes para mapas adyacentes.


METAR-TAF: